createdAt,value
2018-01-07T00:02:05.338Z,23.65
2018-01-07T00:04:34.701Z,21.33
2018-01-07T00:07:04.781Z,27.58
2018-01-07T00:09:34.089Z,24.17
2018-01-07T00:12:03.386Z,26.77
2018-01-07T00:14:32.708Z,25.05
2018-01-07T00:17:02.055Z,28.52
2018-01-07T00:19:31.401Z,22.62
2018-01-07T00:22:00.668Z,22.58
2018-01-07T00:24:29.966Z,27.95
2018-01-07T00:26:59.305Z,28.62
2018-01-07T00:29:28.604Z,27.08
2018-01-07T00:31:57.872Z,31.48
2018-01-07T00:34:27.968Z,31.65
2018-01-07T00:36:57.279Z,25.70
2018-01-07T00:39:26.620Z,24.50
2018-01-07T00:41:55.965Z,27.05
2018-01-07T00:44:25.290Z,27.02
2018-01-07T00:46:55.403Z,24.50
2018-01-07T00:49:24.758Z,24.33
2018-01-07T00:51:54.102Z,22.40
2018-01-07T00:54:23.437Z,25.45
2018-01-07T00:56:52.754Z,25.75
2018-01-07T00:59:22.085Z,27.17
2018-01-07T01:01:51.442Z,32.03
2018-01-07T01:04:20.781Z,24.20
2018-01-07T01:06:50.103Z,29.87
2018-01-07T01:09:19.479Z,28.83
2018-01-07T01:11:48.804Z,24.83
2018-01-07T01:14:18.108Z,23.75
2018-01-07T01:16:47.431Z,26.85
2018-01-07T01:19:16.698Z,23.20
2018-01-07T01:21:46.034Z,24.73
2018-01-07T01:24:16.059Z,30.20
2018-01-07T01:26:46.145Z,25.52
2018-01-07T01:29:15.432Z,26.80
2018-01-07T01:31:44.735Z,28.12
2018-01-07T01:34:14.074Z,24.67
2018-01-07T01:36:44.194Z,29.77
2018-01-07T01:39:14.298Z,22.33
2018-01-07T01:41:43.640Z,24.80
2018-01-07T01:44:12.967Z,23.75
2018-01-07T01:46:42.276Z,23.90
2018-01-07T01:49:23.371Z,24.02
2018-01-07T01:51:52.621Z,21.23
2018-01-07T01:54:21.868Z,22.52
2018-01-07T01:56:51.117Z,21.85
2018-01-07T01:59:20.419Z,24.73
2018-01-07T02:01:49.695Z,24.27
2018-01-07T02:04:18.944Z,25.10
2018-01-07T02:06:48.222Z,25.88
2018-01-07T02:09:17.479Z,22.15
2018-01-07T02:11:47.514Z,25.98
2018-01-07T02:14:17.541Z,25.55
2018-01-07T02:16:46.818Z,26.90
2018-01-07T02:19:16.858Z,30.85
2018-01-07T02:21:46.155Z,28.38
2018-01-07T02:24:16.129Z,24.90
2018-01-07T02:26:47.418Z,28.42
2018-01-07T02:29:16.673Z,22.42
2018-01-07T02:31:45.937Z,21.35
2018-01-07T02:34:15.762Z,23.50
2018-01-07T02:36:45.108Z,27.33
2018-01-07T02:39:14.399Z,23.12
2018-01-07T02:41:44.138Z,26.98
2018-01-07T02:44:14.250Z,25.05
2018-01-07T02:46:44.276Z,24.12
2018-01-07T02:49:15.680Z,26.17
2018-01-07T02:51:45.876Z,24.70
2018-01-07T02:54:15.144Z,22.33
2018-01-07T02:56:45.182Z,26.20
2018-01-07T02:59:15.043Z,27.67
2018-01-07T03:01:44.407Z,27.17
2018-01-07T03:04:13.686Z,31.90
2018-01-07T03:06:43.980Z,25.48
2018-01-07T03:09:14.010Z,29.73
2018-01-07T03:11:44.060Z,27.33
2018-01-07T03:14:13.322Z,27.08
2018-01-07T03:16:43.104Z,28.12
2018-01-07T03:19:12.631Z,26.77
2018-01-07T03:21:42.061Z,26.33
2018-01-07T03:24:11.399Z,31.60
2018-01-07T03:26:41.167Z,23.60
2018-01-07T03:29:10.472Z,21.12
2018-01-07T03:31:39.790Z,21.80
2018-01-07T03:34:09.054Z,18.95
2018-01-07T03:36:39.258Z,22.13
2018-01-07T03:39:08.497Z,25.70
2018-01-07T03:41:38.702Z,26.60
2018-01-07T03:44:09.277Z,22.87
2018-01-07T03:46:38.570Z,22.87
2018-01-07T03:49:07.811Z,18.77
2018-01-07T03:51:37.060Z,22.98
2018-01-07T03:54:08.123Z,22.60
2018-01-07T03:56:37.479Z,24.17
2018-01-07T03:59:06.769Z,25.15
2018-01-07T04:01:36.798Z,24.63
2018-01-07T04:04:06.817Z,22.75
2018-01-07T04:06:39.087Z,27.75
2018-01-07T04:09:08.331Z,30.12
2018-01-07T04:11:38.891Z,29.37
2018-01-07T04:14:08.135Z,36.13
2018-01-07T04:16:37.387Z,27.80
2018-01-07T04:19:06.652Z,42.00
2018-01-07T04:21:35.893Z,23.87
2018-01-07T04:24:05.196Z,28.85
2018-01-07T04:26:35.227Z,27.20
2018-01-07T04:29:05.270Z,27.23
2018-01-07T04:31:34.532Z,30.05
2018-01-07T04:34:09.595Z,26.67
2018-01-07T04:36:38.854Z,28.50
2018-01-07T04:39:08.111Z,31.75
2018-01-07T04:41:37.382Z,31.55
2018-01-07T04:44:06.626Z,32.08
2018-01-07T04:46:44.827Z,32.10
2018-01-07T04:49:14.204Z,31.50
2018-01-07T04:51:45.069Z,34.42
2018-01-07T04:54:14.438Z,36.30
2018-01-07T04:56:43.701Z,33.90
2018-01-07T04:59:12.974Z,30.80
2018-01-07T05:01:42.857Z,35.05
2018-01-07T05:04:12.217Z,31.70
2018-01-07T05:06:41.477Z,36.50
2018-01-07T05:09:10.730Z,35.45
2018-01-07T05:11:40.030Z,36.10
2018-01-07T05:14:10.061Z,33.25
2018-01-07T05:16:39.350Z,31.65
2018-01-07T05:19:08.592Z,42.97
2018-01-07T05:21:37.876Z,36.55
2018-01-07T05:24:07.137Z,35.28
2018-01-07T05:26:37.177Z,31.80
2018-01-07T05:32:11.432Z,33.67
2018-01-07T05:34:40.675Z,29.55
2018-01-07T05:37:09.935Z,29.90
2018-01-07T05:39:39.218Z,37.00
2018-01-07T05:45:07.090Z,35.00
2018-01-07T05:47:37.120Z,25.45
2018-01-07T05:50:22.933Z,32.38
2018-01-07T05:52:52.288Z,30.50
2018-01-07T05:55:21.551Z,35.05
2018-01-07T05:57:50.797Z,25.33
2018-01-07T06:00:42.518Z,26.08
2018-01-07T06:03:13.663Z,32.38
2018-01-07T06:05:43.705Z,37.08
2018-01-07T06:08:12.958Z,40.22
2018-01-07T06:10:42.215Z,34.00
2018-01-07T06:13:11.487Z,32.17
2018-01-07T06:15:40.743Z,67.15
2018-01-07T06:18:09.979Z,57.33
2018-01-07T06:20:40.000Z,44.15
2018-01-07T06:23:09.260Z,34.25
2018-01-07T06:25:38.506Z,49.47
2018-01-07T06:28:07.772Z,25.88
2018-01-07T06:30:37.027Z,24.08
2018-01-07T06:33:06.286Z,53.00
2018-01-07T06:35:35.558Z,54.25
2018-01-07T06:38:25.450Z,36.58
2018-01-07T06:40:55.498Z,27.13
2018-01-07T06:43:26.269Z,57.30
2018-01-07T06:46:09.560Z,45.35
2018-01-07T06:48:41.681Z,31.80
2018-01-07T06:51:12.160Z,36.78
2018-01-07T06:53:42.626Z,26.08
2018-01-07T06:56:12.475Z,28.52
2018-01-07T06:58:42.456Z,28.70
2018-01-07T07:03:59.914Z,35.28
2018-01-07T07:06:29.217Z,24.05
2018-01-07T07:08:59.811Z,24.85
2018-01-07T07:11:29.079Z,34.35
2018-01-07T07:13:59.108Z,27.77
2018-01-07T07:16:28.380Z,38.83
2018-01-07T07:18:57.634Z,32.13
2018-01-07T07:21:27.063Z,34.78
2018-01-07T07:23:56.315Z,36.90
2018-01-07T07:26:25.564Z,30.62
2018-01-07T07:28:54.841Z,28.25
2018-01-07T07:31:24.170Z,27.27
2018-01-07T07:33:53.642Z,30.25
2018-01-07T07:36:23.294Z,34.72
2018-01-07T07:38:52.553Z,29.00
2018-01-07T07:41:22.131Z,26.60
2018-01-07T07:43:53.410Z,25.67
2018-01-07T07:46:23.461Z,27.55
2018-01-07T07:48:52.747Z,25.85
2018-01-07T07:51:22.014Z,27.02
2018-01-07T07:53:51.352Z,28.35
2018-01-07T07:56:20.629Z,27.23
2018-01-07T07:58:49.891Z,33.35
2018-01-07T08:01:21.651Z,28.60
2018-01-07T08:03:52.251Z,25.42
2018-01-07T08:06:22.504Z,27.20
2018-01-07T08:08:52.232Z,34.05
2018-01-07T08:11:22.346Z,33.35
2018-01-07T08:13:51.598Z,25.23
2018-01-07T08:16:20.884Z,27.33
2018-01-07T08:18:50.143Z,27.00
2018-01-07T08:21:19.403Z,28.10
2018-01-07T08:23:48.743Z,30.52
2018-01-07T08:26:18.075Z,30.27
2018-01-07T08:28:48.188Z,25.17
2018-01-07T08:31:19.999Z,28.65
2018-01-07T08:33:49.303Z,27.52
2018-01-07T08:36:18.573Z,28.95
2018-01-07T08:38:47.830Z,32.33
2018-01-07T08:41:17.582Z,34.35
2018-01-07T08:43:46.936Z,34.22
2018-01-07T08:46:16.179Z,41.10
2018-01-07T08:48:45.431Z,37.53
2018-01-07T08:51:14.691Z,44.58
2018-01-07T08:53:43.940Z,43.15
2018-01-07T08:56:13.196Z,34.58
2018-01-07T08:58:43.219Z,45.38
2018-01-07T09:01:13.342Z,32.38
2018-01-07T09:03:43.350Z,37.80
2018-01-07T09:06:13.380Z,46.88
2018-01-07T09:08:43.412Z,44.08
2018-01-07T09:11:12.662Z,43.17
2018-01-07T09:13:41.954Z,38.20
2018-01-07T09:16:11.239Z,36.67
2018-01-07T09:18:40.502Z,34.63
2018-01-07T09:21:09.769Z,43.17
2018-01-07T09:23:39.040Z,38.15
2018-01-07T09:26:08.277Z,36.88
2018-01-07T09:28:37.641Z,40.00
2018-01-07T09:31:06.907Z,39.20
2018-01-07T09:33:36.178Z,40.35
2018-01-07T09:36:06.529Z,44.33
2018-01-07T09:38:36.416Z,41.13
2018-01-07T09:41:05.669Z,34.75
2018-01-07T09:43:34.922Z,35.55
2018-01-07T09:46:04.970Z,40.20
2018-01-07T09:48:34.239Z,32.95
2018-01-07T09:51:04.285Z,41.03
2018-01-07T09:53:33.550Z,36.22
2018-01-07T09:56:02.844Z,49.78
2018-01-07T09:58:32.121Z,38.45
2018-01-07T10:01:01.399Z,38.97
2018-01-07T10:03:30.664Z,39.15
2018-01-07T10:06:00.707Z,35.63
2018-01-07T10:08:29.946Z,40.72
2018-01-07T10:10:59.214Z,35.58
2018-01-07T10:13:29.285Z,36.13
2018-01-07T10:15:58.563Z,39.30
2018-01-07T10:18:27.879Z,32.25
2018-01-07T10:20:57.177Z,48.63
2018-01-07T10:23:26.441Z,42.55
2018-01-07T10:25:55.710Z,37.28
2018-01-07T10:28:24.966Z,39.22
2018-01-07T10:30:54.270Z,39.90
2018-01-07T10:33:23.517Z,38.17
2018-01-07T10:35:52.762Z,37.40
2018-01-07T10:38:22.036Z,33.05
2018-01-07T10:40:51.274Z,39.28
2018-01-07T10:43:20.561Z,44.00
2018-01-07T10:45:49.816Z,32.63
2018-01-07T10:48:19.071Z,35.55
2018-01-07T10:50:48.341Z,29.87
2018-01-07T10:53:17.597Z,33.22
2018-01-07T10:55:47.654Z,29.98
2018-01-07T10:58:16.924Z,29.95
2018-01-07T11:00:51.572Z,29.90
2018-01-07T11:03:20.835Z,29.20
2018-01-07T11:05:50.071Z,24.42
2018-01-07T11:08:19.340Z,28.10
2018-01-07T11:10:48.602Z,24.48
2018-01-07T11:13:17.864Z,26.40
2018-01-07T11:15:47.152Z,27.70
2018-01-07T11:18:16.411Z,25.45
2018-01-07T11:20:45.906Z,24.58
2018-01-07T11:23:15.171Z,25.10
2018-01-07T11:25:44.426Z,27.77
2018-01-07T11:28:15.055Z,29.63
2018-01-07T11:30:44.305Z,25.83
2018-01-07T11:33:13.895Z,29.02
2018-01-07T11:35:43.191Z,34.90
2018-01-07T11:38:12.567Z,33.70
2018-01-07T11:40:41.826Z,31.95
2018-01-07T11:43:11.086Z,31.90
2018-01-07T11:45:40.688Z,28.25
2018-01-07T11:48:09.996Z,30.02
2018-01-07T11:50:39.258Z,26.80
2018-01-07T11:53:08.521Z,33.33
2018-01-07T11:55:37.799Z,31.85
2018-01-07T11:58:07.063Z,30.85
2018-01-07T12:00:36.339Z,37.65
2018-01-07T12:03:05.609Z,35.40
2018-01-07T12:05:34.883Z,34.80
2018-01-07T12:08:04.884Z,34.72
2018-01-07T12:10:34.163Z,31.00
2018-01-07T12:13:03.407Z,29.52
2018-01-07T12:15:32.662Z,31.10
2018-01-07T12:18:01.920Z,36.40
2018-01-07T12:20:31.154Z,30.40
2018-01-07T12:23:00.546Z,36.25
2018-01-07T12:25:29.797Z,34.70
2018-01-07T12:27:59.095Z,28.80
2018-01-07T12:30:29.137Z,30.98
2018-01-07T12:32:58.385Z,30.65
2018-01-07T12:35:27.650Z,36.72
2018-01-07T12:37:56.947Z,28.00
2018-01-07T12:40:26.223Z,34.67
2018-01-07T12:42:55.473Z,32.70
2018-01-07T12:45:24.766Z,43.47
2018-01-07T12:47:54.017Z,38.15
2018-01-07T12:50:24.184Z,30.98
2018-01-07T12:52:53.456Z,32.10
2018-01-07T12:55:22.714Z,38.30
2018-01-07T12:57:51.993Z,30.35
2018-01-07T13:00:21.231Z,31.48
2018-01-07T13:02:50.560Z,36.70
2018-01-07T13:05:19.944Z,29.10
2018-01-07T13:07:49.195Z,35.40
2018-01-07T13:10:18.450Z,35.47
2018-01-07T13:12:47.718Z,32.38
2018-01-07T13:15:16.977Z,33.13
2018-01-07T13:17:46.230Z,34.58
2018-01-07T13:20:16.265Z,32.55
2018-01-07T13:22:45.530Z,28.30
2018-01-07T13:25:14.771Z,37.35
2018-01-07T13:27:44.085Z,34.70
2018-01-07T13:30:13.352Z,34.83
2018-01-07T13:32:42.602Z,30.30
2018-01-07T13:35:11.953Z,32.45
2018-01-07T13:37:41.212Z,27.55
2018-01-07T13:40:10.475Z,33.45
2018-01-07T13:42:39.756Z,39.63
2018-01-07T13:45:09.026Z,32.45
2018-01-07T13:47:38.320Z,26.70
2018-01-07T13:50:07.608Z,25.55
2018-01-07T13:52:36.869Z,31.40
2018-01-07T13:55:06.161Z,25.45
2018-01-07T13:57:35.438Z,25.50
2018-01-07T14:00:04.675Z,28.70
2018-01-07T14:02:33.995Z,34.63
2018-01-07T14:05:03.337Z,29.45
2018-01-07T14:07:32.600Z,26.40
2018-01-07T14:10:02.000Z,26.95
2018-01-07T14:12:31.259Z,25.37
2018-01-07T14:15:00.531Z,31.23
2018-01-07T14:17:30.538Z,28.90
2018-01-07T14:19:59.926Z,23.80
2018-01-07T14:22:29.198Z,28.27
2018-01-07T14:24:59.500Z,31.02
2018-01-07T14:27:29.496Z,25.15
2018-01-07T14:29:59.384Z,31.00
2018-01-07T14:32:29.551Z,27.98
2018-01-07T14:34:59.553Z,28.10
2018-01-07T14:37:29.624Z,32.30
2018-01-07T14:40:00.560Z,29.65
2018-01-07T14:42:30.747Z,29.05
2018-01-07T14:45:01.114Z,27.92
2018-01-07T14:47:31.492Z,26.25
2018-01-07T14:50:01.824Z,28.17
2018-01-07T14:52:31.800Z,31.20
2018-01-07T14:55:02.182Z,28.23
2018-01-07T14:57:32.393Z,25.75
2018-01-07T15:00:03.124Z,27.80
2018-01-07T15:02:33.534Z,28.08
2018-01-07T15:05:03.763Z,34.55
2018-01-07T15:07:33.955Z,28.98
2018-01-07T15:10:03.836Z,33.30
2018-01-07T15:18:36.223Z,27.80
2018-01-07T15:21:06.603Z,36.70
2018-01-07T15:23:37.432Z,34.50
2018-01-07T15:26:07.216Z,30.67
2018-01-07T15:28:37.596Z,33.58
2018-01-07T15:31:07.558Z,26.85
2018-01-07T15:33:37.555Z,29.98
2018-01-07T15:36:07.455Z,31.45
2018-01-07T15:38:36.888Z,33.38
2018-01-07T15:41:06.167Z,31.35
2018-01-07T15:43:35.427Z,32.90
2018-01-07T15:46:04.695Z,34.33
2018-01-07T15:48:33.936Z,31.77
2018-01-07T15:51:03.968Z,35.25
2018-01-07T15:53:33.229Z,32.63
2018-01-07T15:56:02.504Z,33.70
2018-01-07T15:58:31.757Z,30.62
2018-01-07T16:01:01.789Z,31.65
2018-01-07T16:03:31.068Z,36.78
2018-01-07T16:06:01.101Z,31.00
2018-01-07T16:08:31.137Z,29.80
2018-01-07T16:11:00.389Z,27.55
2018-01-07T16:13:29.647Z,31.37
2018-01-07T16:15:58.911Z,26.90
2018-01-07T16:18:28.175Z,27.30
2018-01-07T16:20:57.499Z,25.75
2018-01-07T16:23:27.544Z,20.60
2018-01-07T16:25:57.556Z,16.52
2018-01-07T16:28:26.815Z,19.92
2018-01-07T16:30:56.095Z,20.92
2018-01-07T16:33:25.353Z,19.45
2018-01-07T16:35:54.605Z,25.27
2018-01-07T16:38:23.886Z,28.08
2018-01-07T16:40:53.175Z,24.77
2018-01-07T16:43:22.448Z,26.27
2018-01-07T16:45:51.728Z,26.23
2018-01-07T16:48:21.747Z,24.90
2018-01-07T16:50:51.007Z,20.35
2018-01-07T16:53:20.265Z,21.87
2018-01-07T16:55:50.262Z,22.40
2018-01-07T16:58:20.387Z,21.67
2018-01-07T17:00:50.425Z,20.08
2018-01-07T17:03:19.724Z,21.00
2018-01-07T17:05:48.981Z,17.60
2018-01-07T17:08:18.298Z,16.05
2018-01-07T17:10:47.561Z,14.95
2018-01-07T17:13:16.791Z,12.63
2018-01-07T17:15:46.028Z,13.93
2018-01-07T17:18:16.060Z,16.60
2018-01-07T17:20:45.914Z,13.40
2018-01-07T17:23:15.170Z,17.98
2018-01-07T17:25:44.456Z,15.48
2018-01-07T17:28:13.706Z,16.52
2018-01-07T17:30:42.994Z,16.70
2018-01-07T17:33:12.247Z,12.90
2018-01-07T17:35:41.497Z,15.82
2018-01-07T17:38:10.781Z,16.62
2018-01-07T17:40:40.058Z,15.43
2018-01-07T17:43:09.319Z,12.77
2018-01-07T17:45:38.596Z,15.38
2018-01-07T17:48:07.894Z,12.57
2018-01-07T17:50:37.178Z,11.38
2018-01-07T17:53:06.412Z,12.30
2018-01-07T17:55:35.704Z,13.07
2018-01-07T17:58:04.969Z,10.35
2018-01-07T18:00:34.214Z,10.15
2018-01-07T18:03:03.481Z,13.45
2018-01-07T18:05:32.720Z,10.98
2018-01-07T18:08:02.755Z,11.50
2018-01-07T18:10:32.007Z,14.32
2018-01-07T18:13:01.269Z,11.75
2018-01-07T18:15:30.526Z,13.13
2018-01-07T18:17:59.776Z,12.37
2018-01-07T18:20:29.800Z,11.02
2018-01-07T18:22:59.080Z,10.57
2018-01-07T18:25:28.357Z,11.43
2018-01-07T18:27:58.392Z,11.93
2018-01-07T18:30:28.414Z,11.50
2018-01-07T18:32:57.685Z,16.12
2018-01-07T18:35:26.948Z,14.27
2018-01-07T18:37:56.189Z,13.82
2018-01-07T18:40:25.457Z,13.32
2018-01-07T18:42:54.725Z,13.43
2018-01-07T18:45:23.982Z,15.93
2018-01-07T18:47:53.217Z,13.88
2018-01-07T18:50:22.466Z,15.25
2018-01-07T18:52:51.747Z,17.50
2018-01-07T18:55:21.001Z,18.15
2018-01-07T18:57:50.267Z,21.65
2018-01-07T19:00:19.520Z,17.92
2018-01-07T19:02:48.783Z,17.20
2018-01-07T19:05:18.823Z,17.17
2018-01-07T19:07:48.083Z,17.42
2018-01-07T19:10:17.364Z,16.15
2018-01-07T19:12:46.652Z,14.90
2018-01-07T19:15:15.936Z,17.35
2018-01-07T19:17:45.310Z,16.95
2018-01-07T19:20:15.344Z,17.23
2018-01-07T19:22:44.592Z,14.43
2018-01-07T19:25:13.855Z,16.80
2018-01-07T19:27:43.113Z,18.12
2018-01-07T19:30:13.189Z,16.48
2018-01-07T19:32:42.463Z,17.33
2018-01-07T19:35:11.726Z,18.35
2018-01-07T19:37:40.973Z,17.48
2018-01-07T19:40:10.220Z,21.17
2018-01-07T19:42:39.483Z,20.15
2018-01-07T19:45:08.807Z,25.95
2018-01-07T19:47:38.057Z,18.60
2018-01-07T19:50:07.354Z,18.37
2018-01-07T19:52:36.623Z,17.37
2018-01-07T19:55:06.498Z,18.85
2018-01-07T19:57:35.779Z,15.60
2018-01-07T20:00:05.066Z,17.27
2018-01-07T20:02:34.360Z,16.83
2018-01-07T20:05:03.787Z,16.85
2018-01-07T20:07:33.064Z,16.55
2018-01-07T20:10:02.342Z,16.05
2018-01-07T20:12:32.502Z,19.95
2018-01-07T20:15:02.040Z,16.98
2018-01-07T20:17:31.306Z,17.58
2018-01-07T20:20:00.599Z,20.20
2018-01-07T20:22:29.893Z,16.05
2018-01-07T20:24:59.190Z,18.85
2018-01-07T20:27:28.536Z,17.00
2018-01-07T20:29:57.786Z,16.73
2018-01-07T20:32:27.095Z,19.58
2018-01-07T20:34:56.364Z,17.80
2018-01-07T20:37:25.641Z,17.67
2018-01-07T20:39:55.012Z,17.70
2018-01-07T20:42:24.290Z,16.87
2018-01-07T20:44:53.614Z,19.75
2018-01-07T20:47:22.946Z,15.82
2018-01-07T20:49:52.239Z,17.30
2018-01-07T20:52:21.503Z,15.27
2018-01-07T20:54:54.965Z,18.17
2018-01-07T20:57:24.244Z,15.32
2018-01-07T20:59:53.560Z,15.48
2018-01-07T21:02:22.878Z,16.40
2018-01-07T21:04:52.943Z,16.12
2018-01-07T21:07:22.206Z,16.70
2018-01-07T21:09:51.503Z,17.45
2018-01-07T21:12:21.551Z,17.08
2018-01-07T21:14:50.842Z,14.80
2018-01-07T21:17:20.686Z,12.85
2018-01-07T21:19:49.938Z,14.18
2018-01-07T21:22:19.199Z,14.35
2018-01-07T21:24:48.470Z,17.55
2018-01-07T21:27:17.739Z,14.87
2018-01-07T21:29:47.000Z,15.15
2018-01-07T21:32:16.261Z,14.55
2018-01-07T21:34:45.546Z,15.07
2018-01-07T21:37:14.888Z,15.25
2018-01-07T21:39:44.866Z,17.73
2018-01-07T21:42:14.102Z,15.30
2018-01-07T21:44:43.361Z,14.65
2018-01-07T21:47:12.628Z,16.98
2018-01-07T21:49:41.873Z,13.40
2018-01-07T21:52:11.134Z,18.08
2018-01-07T21:54:40.372Z,18.35
2018-01-07T21:57:09.619Z,21.83
2018-01-07T21:59:57.662Z,22.67
2018-01-07T22:02:43.658Z,18.15
2018-01-07T22:05:16.153Z,18.60
2018-01-07T22:07:45.359Z,19.23
2018-01-07T22:10:14.647Z,19.45
2018-01-07T22:12:44.657Z,22.83
2018-01-07T22:15:14.683Z,32.10
2018-01-07T22:17:43.953Z,38.08
2018-01-07T22:20:13.223Z,20.45
2018-01-07T22:22:42.481Z,16.90
2018-01-07T22:25:11.752Z,17.17
2018-01-07T22:27:41.000Z,18.83
2018-01-07T22:30:10.277Z,17.80
2018-01-07T22:32:40.289Z,19.15
2018-01-07T22:35:10.320Z,19.73
2018-01-07T22:37:39.597Z,17.27
2018-01-07T22:40:08.871Z,17.83
2018-01-07T22:45:13.497Z,17.70
2018-01-07T22:47:48.287Z,23.35
2018-01-07T22:50:17.561Z,20.62
2018-01-07T22:52:46.817Z,20.40
2018-01-07T22:55:16.080Z,17.90
2018-01-07T22:57:45.352Z,20.02
2018-01-07T23:00:14.616Z,22.65
2018-01-07T23:02:43.861Z,21.67
2018-01-07T23:05:13.879Z,18.90
2018-01-07T23:07:43.899Z,20.15
2018-01-07T23:10:14.128Z,19.33
2018-01-07T23:12:43.388Z,17.70
2018-01-07T23:15:12.637Z,21.55
2018-01-07T23:17:41.914Z,21.10
2018-01-07T23:20:11.933Z,25.20
2018-01-07T23:22:41.974Z,20.75
2018-01-07T23:25:11.237Z,19.85
2018-01-07T23:27:40.505Z,23.90
2018-01-07T23:30:10.525Z,20.02
2018-01-07T23:32:39.775Z,19.08
2018-01-07T23:35:09.801Z,22.95
2018-01-07T23:37:39.841Z,22.15
2018-01-07T23:40:09.119Z,23.30
2018-01-07T23:42:38.390Z,18.90
2018-01-07T23:45:07.652Z,23.25
2018-01-07T23:47:37.859Z,20.50
2018-01-07T23:50:07.130Z,20.70
2018-01-07T23:52:37.173Z,21.85
2018-01-07T23:55:06.415Z,20.92
2018-01-07T23:57:35.684Z,21.35
